sensor_id;sensor_type;location;lat;lon;timestamp;temperature;humidity
51783;DHT22;37845;53.196;5.638;2022-10-16T00:00:43;12.90;99.90
51783;DHT22;37845;53.196;5.638;2022-10-16T00:03:09;13.20;99.90
51783;DHT22;37845;53.196;5.638;2022-10-16T00:05:42;12.90;99.90
51783;DHT22;37845;53.196;5.638;2022-10-16T00:08:08;12.90;99.90
51783;DHT22;37845;53.196;5.638;2022-10-16T00:10:34;12.90;99.90
51783;DHT22;37845;53.196;5.638;2022-10-16T00:13:00;12.90;99.90
51783;DHT22;37845;53.196;5.638;2022-10-16T00:15:26;12.90;99.90
51783;DHT22;37845;53.196;5.638;2022-10-16T00:17:51;12.90;99.90
51783;DHT22;37845;53.196;5.638;2022-10-16T00:20:17;12.90;99.90
51783;DHT22;37845;53.196;5.638;2022-10-16T00:22:43;12.90;99.90
51783;DHT22;37845;53.196;5.638;2022-10-16T00:25:08;12.90;99.90
51783;DHT22;37845;53.196;5.638;2022-10-16T00:27:34;12.80;99.90
51783;DHT22;37845;53.196;5.638;2022-10-16T00:30:00;13.20;99.90
51783;DHT22;37845;53.196;5.638;2022-10-16T00:32:26;12.80;99.90
51783;DHT22;37845;53.196;5.638;2022-10-16T00:34:51;12.80;99.90
51783;DHT22;37845;53.196;5.638;2022-10-16T00:37:20;12.80;99.90
51783;DHT22;37845;53.196;5.638;2022-10-16T00:39:45;12.80;99.90
51783;DHT22;37845;53.196;5.638;2022-10-16T00:42:15;12.80;99.90
51783;DHT22;37845;53.196;5.638;2022-10-16T00:44:49;12.80;99.90
51783;DHT22;37845;53.196;5.638;2022-10-16T00:47:17;12.80;99.90
51783;DHT22;37845;53.196;5.638;2022-10-16T00:49:43;12.80;99.90
51783;DHT22;37845;53.196;5.638;2022-10-16T00:52:09;12.80;99.90
51783;DHT22;37845;53.196;5.638;2022-10-16T00:54:35;12.80;99.90
51783;DHT22;37845;53.196;5.638;2022-10-16T00:57:02;12.80;99.90
51783;DHT22;37845;53.196;5.638;2022-10-16T00:59:33;12.80;99.90
51783;DHT22;37845;53.196;5.638;2022-10-16T01:01:59;12.80;99.90
51783;DHT22;37845;53.196;5.638;2022-10-16T01:04:25;12.90;99.90
51783;DHT22;37845;53.196;5.638;2022-10-16T01:09:19;12.90;99.90
51783;DHT22;37845;53.196;5.638;2022-10-16T01:11:54;13.00;99.90
51783;DHT22;37845;53.196;5.638;2022-10-16T01:17:06;13.00;99.90
51783;DHT22;37845;53.196;5.638;2022-10-16T01:19:41;13.00;99.90
51783;DHT22;37845;53.196;5.638;2022-10-16T01:22:09;13.00;99.90
51783;DHT22;37845;53.196;5.638;2022-10-16T01:24:39;13.10;99.90
51783;DHT22;37845;53.196;5.638;2022-10-16T01:27:15;13.10;99.90
51783;DHT22;37845;53.196;5.638;2022-10-16T01:29:45;13.00;99.90
51783;DHT22;37845;53.196;5.638;2022-10-16T01:32:36;13.00;99.90
51783;DHT22;37845;53.196;5.638;2022-10-16T01:35:21;13.00;99.90
51783;DHT22;37845;53.196;5.638;2022-10-16T01:37:48;13.00;99.90
51783;DHT22;37845;53.196;5.638;2022-10-16T01:40:16;13.00;99.90
51783;DHT22;37845;53.196;5.638;2022-10-16T01:42:47;13.10;99.90
51783;DHT22;37845;53.196;5.638;2022-10-16T01:45:14;13.10;99.90
51783;DHT22;37845;53.196;5.638;2022-10-16T01:47:43;13.10;99.90
51783;DHT22;37845;53.196;5.638;2022-10-16T01:50:09;13.10;99.90
51783;DHT22;37845;53.196;5.638;2022-10-16T01:52:36;13.30;99.90
51783;DHT22;37845;53.196;5.638;2022-10-16T01:55:03;13.20;99.90
51783;DHT22;37845;53.196;5.638;2022-10-16T01:57:30;13.20;99.90
51783;DHT22;37845;53.196;5.638;2022-10-16T01:59:58;13.20;99.90
51783;DHT22;37845;53.196;5.638;2022-10-16T02:02:26;13.20;99.90
51783;DHT22;37845;53.196;5.638;2022-10-16T02:05:02;13.10;99.90
51783;DHT22;37845;53.196;5.638;2022-10-16T02:07:29;13.10;99.90
51783;DHT22;37845;53.196;5.638;2022-10-16T02:09:55;13.10;99.90
51783;DHT22;37845;53.196;5.638;2022-10-16T02:14:49;13.00;99.90
51783;DHT22;37845;53.196;5.638;2022-10-16T02:17:16;12.90;99.90
51783;DHT22;37845;53.196;5.638;2022-10-16T02:19:42;12.90;99.90
51783;DHT22;37845;53.196;5.638;2022-10-16T02:22:08;12.90;99.90
51783;DHT22;37845;53.196;5.638;2022-10-16T02:27:07;12.80;99.90
51783;DHT22;37845;53.196;5.638;2022-10-16T02:29:36;12.80;99.90
51783;DHT22;37845;53.196;5.638;2022-10-16T02:32:04;12.70;99.90
51783;DHT22;37845;53.196;5.638;2022-10-16T02:34:31;12.70;99.90
51783;DHT22;37845;53.196;5.638;2022-10-16T02:36:57;12.70;99.90
51783;DHT22;37845;53.196;5.638;2022-10-16T02:39:23;12.60;99.90
51783;DHT22;37845;53.196;5.638;2022-10-16T02:41:50;12.60;99.90
51783;DHT22;37845;53.196;5.638;2022-10-16T02:44:15;12.60;99.90
51783;DHT22;37845;53.196;5.638;2022-10-16T02:46:41;12.50;99.90
51783;DHT22;37845;53.196;5.638;2022-10-16T02:49:07;13.10;99.90
51783;DHT22;37845;53.196;5.638;2022-10-16T02:51:32;12.50;99.90
51783;DHT22;37845;53.196;5.638;2022-10-16T02:53:58;12.50;99.90
51783;DHT22;37845;53.196;5.638;2022-10-16T02:56:23;12.50;99.90
51783;DHT22;37845;53.196;5.638;2022-10-16T02:58:49;12.40;99.90
51783;DHT22;37845;53.196;5.638;2022-10-16T03:01:15;12.40;99.90
51783;DHT22;37845;53.196;5.638;2022-10-16T03:03:42;12.80;99.90
51783;DHT22;37845;53.196;5.638;2022-10-16T03:06:08;12.40;99.90
51783;DHT22;37845;53.196;5.638;2022-10-16T03:08:33;12.30;99.90
51783;DHT22;37845;53.196;5.638;2022-10-16T03:10:59;12.30;99.90
51783;DHT22;37845;53.196;5.638;2022-10-16T03:13:24;12.40;99.90
51783;DHT22;37845;53.196;5.638;2022-10-16T03:15:50;12.40;99.90
51783;DHT22;37845;53.196;5.638;2022-10-16T03:18:16;12.40;99.90
51783;DHT22;37845;53.196;5.638;2022-10-16T03:20:42;12.40;99.90
51783;DHT22;37845;53.196;5.638;2022-10-16T03:23:08;12.40;99.90
51783;DHT22;37845;53.196;5.638;2022-10-16T03:25:33;12.40;99.90
51783;DHT22;37845;53.196;5.638;2022-10-16T03:27:59;12.40;99.90
51783;DHT22;37845;53.196;5.638;2022-10-16T03:30:25;12.40;99.90
51783;DHT22;37845;53.196;5.638;2022-10-16T03:32:51;12.50;99.90
51783;DHT22;37845;53.196;5.638;2022-10-16T03:35:19;12.50;99.90
51783;DHT22;37845;53.196;5.638;2022-10-16T03:37:45;12.50;99.90
51783;DHT22;37845;53.196;5.638;2022-10-16T03:40:11;12.50;99.90
51783;DHT22;37845;53.196;5.638;2022-10-16T03:42:36;12.50;99.90
51783;DHT22;37845;53.196;5.638;2022-10-16T03:45:02;12.50;99.90
51783;DHT22;37845;53.196;5.638;2022-10-16T03:47:28;12.40;99.90
51783;DHT22;37845;53.196;5.638;2022-10-16T03:49:53;12.40;99.90
51783;DHT22;37845;53.196;5.638;2022-10-16T03:52:19;12.50;99.90
51783;DHT22;37845;53.196;5.638;2022-10-16T03:54:45;12.50;99.90
51783;DHT22;37845;53.196;5.638;2022-10-16T03:57:10;12.50;99.90
51783;DHT22;37845;53.196;5.638;2022-10-16T03:59:36;12.50;99.90
51783;DHT22;37845;53.196;5.638;2022-10-16T04:02:01;12.60;99.90
51783;DHT22;37845;53.196;5.638;2022-10-16T04:04:27;12.70;99.90
51783;DHT22;37845;53.196;5.638;2022-10-16T04:06:53;12.70;99.90
51783;DHT22;37845;53.196;5.638;2022-10-16T04:09:18;12.70;99.90
51783;DHT22;37845;53.196;5.638;2022-10-16T04:11:44;12.70;99.90
51783;DHT22;37845;53.196;5.638;2022-10-16T04:14:10;12.70;99.90
51783;DHT22;37845;53.196;5.638;2022-10-16T04:16:35;12.70;99.90
51783;DHT22;37845;53.196;5.638;2022-10-16T04:19:01;12.70;99.90
51783;DHT22;37845;53.196;5.638;2022-10-16T04:21:26;12.70;99.90
51783;DHT22;37845;53.196;5.638;2022-10-16T04:23:52;12.60;99.90
51783;DHT22;37845;53.196;5.638;2022-10-16T04:26:17;12.60;99.90
51783;DHT22;37845;53.196;5.638;2022-10-16T04:28:43;12.60;99.90
51783;DHT22;37845;53.196;5.638;2022-10-16T04:31:09;12.60;99.90
51783;DHT22;37845;53.196;5.638;2022-10-16T04:33:34;12.60;99.90
51783;DHT22;37845;53.196;5.638;2022-10-16T04:36:00;12.60;99.90
51783;DHT22;37845;53.196;5.638;2022-10-16T04:38:26;12.70;99.90
51783;DHT22;37845;53.196;5.638;2022-10-16T04:40:52;12.60;99.90
51783;DHT22;37845;53.196;5.638;2022-10-16T04:43:18;12.60;99.90
51783;DHT22;37845;53.196;5.638;2022-10-16T04:45:44;12.60;99.90
51783;DHT22;37845;53.196;5.638;2022-10-16T04:48:09;12.60;99.90
51783;DHT22;37845;53.196;5.638;2022-10-16T04:50:35;12.60;99.90
51783;DHT22;37845;53.196;5.638;2022-10-16T04:53:00;12.60;99.90
51783;DHT22;37845;53.196;5.638;2022-10-16T04:55:26;12.60;99.90
51783;DHT22;37845;53.196;5.638;2022-10-16T04:57:52;12.60;99.90
51783;DHT22;37845;53.196;5.638;2022-10-16T05:00:17;12.60;99.90
51783;DHT22;37845;53.196;5.638;2022-10-16T05:02:53;12.60;99.90
51783;DHT22;37845;53.196;5.638;2022-10-16T05:05:19;12.60;99.90
51783;DHT22;37845;53.196;5.638;2022-10-16T05:07:45;12.60;99.90
51783;DHT22;37845;53.196;5.638;2022-10-16T05:10:11;12.70;99.90
51783;DHT22;37845;53.196;5.638;2022-10-16T05:12:36;12.70;99.90
51783;DHT22;37845;53.196;5.638;2022-10-16T05:15:02;12.60;99.90
51783;DHT22;37845;53.196;5.638;2022-10-16T05:17:28;12.60;99.90
51783;DHT22;37845;53.196;5.638;2022-10-16T05:19:53;12.60;99.90
51783;DHT22;37845;53.196;5.638;2022-10-16T05:22:19;12.60;99.90
51783;DHT22;37845;53.196;5.638;2022-10-16T05:24:45;12.60;99.90
51783;DHT22;37845;53.196;5.638;2022-10-16T05:27:10;12.60;99.90
51783;DHT22;37845;53.196;5.638;2022-10-16T05:29:47;12.60;99.90
51783;DHT22;37845;53.196;5.638;2022-10-16T05:32:13;12.60;99.90
51783;DHT22;37845;53.196;5.638;2022-10-16T05:34:39;12.60;99.90
51783;DHT22;37845;53.196;5.638;2022-10-16T05:37:04;12.50;99.90
51783;DHT22;37845;53.196;5.638;2022-10-16T05:39:30;12.50;99.90
51783;DHT22;37845;53.196;5.638;2022-10-16T05:42:01;12.50;99.90
51783;DHT22;37845;53.196;5.638;2022-10-16T05:44:26;12.50;99.90
51783;DHT22;37845;53.196;5.638;2022-10-16T05:46:52;12.40;99.90
51783;DHT22;37845;53.196;5.638;2022-10-16T05:49:17;12.50;99.90
51783;DHT22;37845;53.196;5.638;2022-10-16T05:51:43;12.50;99.90
51783;DHT22;37845;53.196;5.638;2022-10-16T05:54:09;12.50;99.90
51783;DHT22;37845;53.196;5.638;2022-10-16T05:56:34;12.40;99.90
51783;DHT22;37845;53.196;5.638;2022-10-16T05:59:00;12.40;99.90
51783;DHT22;37845;53.196;5.638;2022-10-16T06:01:26;12.40;99.90
51783;DHT22;37845;53.196;5.638;2022-10-16T06:03:51;12.50;99.90
51783;DHT22;37845;53.196;5.638;2022-10-16T06:06:18;12.40;99.90
51783;DHT22;37845;53.196;5.638;2022-10-16T06:08:46;12.40;99.90
51783;DHT22;37845;53.196;5.638;2022-10-16T06:11:12;12.40;99.90
51783;DHT22;37845;53.196;5.638;2022-10-16T06:13:44;12.40;99.90
51783;DHT22;37845;53.196;5.638;2022-10-16T06:16:11;12.40;99.90
51783;DHT22;37845;53.196;5.638;2022-10-16T06:18:37;12.40;99.90
51783;DHT22;37845;53.196;5.638;2022-10-16T06:21:07;12.40;99.90
51783;DHT22;37845;53.196;5.638;2022-10-16T06:23:38;12.40;99.90
51783;DHT22;37845;53.196;5.638;2022-10-16T06:26:10;12.40;99.90
51783;DHT22;37845;53.196;5.638;2022-10-16T06:28:36;12.40;99.90
51783;DHT22;37845;53.196;5.638;2022-10-16T06:31:02;12.40;99.90
51783;DHT22;37845;53.196;5.638;2022-10-16T06:33:28;12.50;99.90
51783;DHT22;37845;53.196;5.638;2022-10-16T06:35:59;12.50;99.90
51783;DHT22;37845;53.196;5.638;2022-10-16T06:38:25;13.10;99.90
51783;DHT22;37845;53.196;5.638;2022-10-16T06:40:50;12.50;99.90
51783;DHT22;37845;53.196;5.638;2022-10-16T06:43:18;12.50;99.90
51783;DHT22;37845;53.196;5.638;2022-10-16T06:45:49;12.60;99.90
51783;DHT22;37845;53.196;5.638;2022-10-16T06:48:15;12.60;99.90
51783;DHT22;37845;53.196;5.638;2022-10-16T06:50:41;12.60;99.90
51783;DHT22;37845;53.196;5.638;2022-10-16T06:53:06;12.70;99.90
51783;DHT22;37845;53.196;5.638;2022-10-16T06:55:32;12.70;99.90
51783;DHT22;37845;53.196;5.638;2022-10-16T06:57:57;12.70;99.90
51783;DHT22;37845;53.196;5.638;2022-10-16T07:00:23;12.70;99.90
51783;DHT22;37845;53.196;5.638;2022-10-16T07:02:49;12.70;99.90
51783;DHT22;37845;53.196;5.638;2022-10-16T07:05:15;12.70;99.90
51783;DHT22;37845;53.196;5.638;2022-10-16T07:07:40;12.60;99.90
51783;DHT22;37845;53.196;5.638;2022-10-16T07:10:06;12.60;99.90
51783;DHT22;37845;53.196;5.638;2022-10-16T07:12:31;12.60;99.90
51783;DHT22;37845;53.196;5.638;2022-10-16T07:14:57;12.60;99.90
51783;DHT22;37845;53.196;5.638;2022-10-16T07:17:23;12.60;99.90
51783;DHT22;37845;53.196;5.638;2022-10-16T07:19:48;12.60;99.90
51783;DHT22;37845;53.196;5.638;2022-10-16T07:22:14;12.70;99.90
51783;DHT22;37845;53.196;5.638;2022-10-16T07:24:40;12.70;99.90
51783;DHT22;37845;53.196;5.638;2022-10-16T07:27:05;12.70;99.90
51783;DHT22;37845;53.196;5.638;2022-10-16T07:29:31;12.70;99.90
51783;DHT22;37845;53.196;5.638;2022-10-16T07:31:57;12.80;99.90
51783;DHT22;37845;53.196;5.638;2022-10-16T07:34:22;12.80;99.90
51783;DHT22;37845;53.196;5.638;2022-10-16T07:36:49;12.80;99.90
51783;DHT22;37845;53.196;5.638;2022-10-16T07:39:15;12.80;99.90
51783;DHT22;37845;53.196;5.638;2022-10-16T07:41:40;12.80;99.90
51783;DHT22;37845;53.196;5.638;2022-10-16T07:44:06;12.80;99.90
51783;DHT22;37845;53.196;5.638;2022-10-16T07:46:31;12.80;99.90
51783;DHT22;37845;53.196;5.638;2022-10-16T07:48:59;12.80;99.90
51783;DHT22;37845;53.196;5.638;2022-10-16T07:51:25;12.80;99.90
51783;DHT22;37845;53.196;5.638;2022-10-16T07:53:51;12.80;99.90
51783;DHT22;37845;53.196;5.638;2022-10-16T07:56:17;12.80;99.90
51783;DHT22;37845;53.196;5.638;2022-10-16T07:58:43;12.90;99.90
51783;DHT22;37845;53.196;5.638;2022-10-16T08:01:10;12.90;99.90
51783;DHT22;37845;53.196;5.638;2022-10-16T08:03:35;12.90;99.90
51783;DHT22;37845;53.196;5.638;2022-10-16T08:06:01;12.90;99.90
51783;DHT22;37845;53.196;5.638;2022-10-16T08:08:27;13.00;99.90
51783;DHT22;37845;53.196;5.638;2022-10-16T08:10:53;13.00;99.90
51783;DHT22;37845;53.196;5.638;2022-10-16T08:13:19;13.00;99.90
51783;DHT22;37845;53.196;5.638;2022-10-16T08:15:45;13.10;99.90
51783;DHT22;37845;53.196;5.638;2022-10-16T08:18:11;13.10;99.90
51783;DHT22;37845;53.196;5.638;2022-10-16T08:20:37;13.10;99.90
51783;DHT22;37845;53.196;5.638;2022-10-16T08:23:03;13.20;99.90
51783;DHT22;37845;53.196;5.638;2022-10-16T08:25:29;13.30;99.90
51783;DHT22;37845;53.196;5.638;2022-10-16T08:27:55;13.30;99.90
51783;DHT22;37845;53.196;5.638;2022-10-16T08:30:21;13.30;99.90
51783;DHT22;37845;53.196;5.638;2022-10-16T08:32:47;13.30;99.90
51783;DHT22;37845;53.196;5.638;2022-10-16T08:35:13;13.30;99.90
51783;DHT22;37845;53.196;5.638;2022-10-16T08:37:40;13.30;99.90
51783;DHT22;37845;53.196;5.638;2022-10-16T08:40:06;13.40;99.90
51783;DHT22;37845;53.196;5.638;2022-10-16T08:47:39;13.80;99.90
51783;DHT22;37845;53.196;5.638;2022-10-16T08:50:09;13.90;99.90
51783;DHT22;37845;53.196;5.638;2022-10-16T08:52:37;14.00;99.90
51783;DHT22;37845;53.196;5.638;2022-10-16T08:55:04;14.00;99.90
51783;DHT22;37845;53.196;5.638;2022-10-16T08:57:30;14.10;99.90
51783;DHT22;37845;53.196;5.638;2022-10-16T08:59:59;14.20;99.90
51783;DHT22;37845;53.196;5.638;2022-10-16T09:02:38;14.70;99.90
51783;DHT22;37845;53.196;5.638;2022-10-16T09:08:44;14.40;99.90
51783;DHT22;37845;53.196;5.638;2022-10-16T09:10:43;14.60;99.90
51783;DHT22;37845;53.196;5.638;2022-10-16T09:18:33;14.70;99.90
51783;DHT22;37845;53.196;5.638;2022-10-16T09:23:33;14.90;99.90
51783;DHT22;37845;53.196;5.638;2022-10-16T09:25:59;14.90;99.90
51783;DHT22;37845;53.196;5.638;2022-10-16T09:28:25;14.90;99.90
51783;DHT22;37845;53.196;5.638;2022-10-16T09:30:50;15.00;99.90
51783;DHT22;37845;53.196;5.638;2022-10-16T09:33:20;15.00;99.90
51783;DHT22;37845;53.196;5.638;2022-10-16T09:35:50;15.10;99.90
51783;DHT22;37845;53.196;5.638;2022-10-16T09:40:48;15.30;99.90
51783;DHT22;37845;53.196;5.638;2022-10-16T09:45:40;15.30;99.90
51783;DHT22;37845;53.196;5.638;2022-10-16T09:48:12;15.30;99.90
51783;DHT22;37845;53.196;5.638;2022-10-16T09:50:38;15.30;99.90
51783;DHT22;37845;53.196;5.638;2022-10-16T09:53:05;15.40;99.90
51783;DHT22;37845;53.196;5.638;2022-10-16T09:55:30;15.30;99.90
51783;DHT22;37845;53.196;5.638;2022-10-16T09:57:56;15.40;99.90
51783;DHT22;37845;53.196;5.638;2022-10-16T10:00:22;15.40;99.90
51783;DHT22;37845;53.196;5.638;2022-10-16T10:02:48;15.50;99.90
51783;DHT22;37845;53.196;5.638;2022-10-16T10:05:27;15.40;99.90
51783;DHT22;37845;53.196;5.638;2022-10-16T10:07:57;15.40;99.90
51783;DHT22;37845;53.196;5.638;2022-10-16T10:10:27;15.50;99.90
51783;DHT22;37845;53.196;5.638;2022-10-16T10:12:53;15.40;99.90
51783;DHT22;37845;53.196;5.638;2022-10-16T10:15:20;15.50;99.90
51783;DHT22;37845;53.196;5.638;2022-10-16T10:17:48;15.50;99.90
51783;DHT22;37845;53.196;5.638;2022-10-16T10:22:48;15.50;99.90
51783;DHT22;37845;53.196;5.638;2022-10-16T10:30:18;15.60;99.90
51783;DHT22;37845;53.196;5.638;2022-10-16T10:32:49;15.60;99.90
51783;DHT22;37845;53.196;5.638;2022-10-16T10:35:25;15.60;99.90
51783;DHT22;37845;53.196;5.638;2022-10-16T10:45:47;15.70;99.90
51783;DHT22;37845;53.196;5.638;2022-10-16T10:50:58;15.80;99.90
51783;DHT22;37845;53.196;5.638;2022-10-16T11:08:46;15.90;99.90
51783;DHT22;37845;53.196;5.638;2022-10-16T11:13:44;15.90;99.90
51783;DHT22;37845;53.196;5.638;2022-10-16T11:16:30;16.00;99.90
51783;DHT22;37845;53.196;5.638;2022-10-16T11:19:11;16.00;99.90
51783;DHT22;37845;53.196;5.638;2022-10-16T11:22:01;16.00;99.90
51783;DHT22;37845;53.196;5.638;2022-10-16T11:27:40;16.10;99.90
51783;DHT22;37845;53.196;5.638;2022-10-16T11:30:29;16.10;99.90
51783;DHT22;37845;53.196;5.638;2022-10-16T11:33:12;16.10;99.90
51783;DHT22;37845;53.196;5.638;2022-10-16T11:35:42;16.10;99.90
51783;DHT22;37845;53.196;5.638;2022-10-16T11:38:12;16.10;99.90
51783;DHT22;37845;53.196;5.638;2022-10-16T11:40:41;16.10;99.90
51783;DHT22;37845;53.196;5.638;2022-10-16T11:43:22;16.20;99.90
51783;DHT22;37845;53.196;5.638;2022-10-16T11:45:51;16.20;99.90
51783;DHT22;37845;53.196;5.638;2022-10-16T11:48:20;16.20;99.90
51783;DHT22;37845;53.196;5.638;2022-10-16T11:50:52;16.30;99.90
51783;DHT22;37845;53.196;5.638;2022-10-16T11:55:46;16.30;99.90
51783;DHT22;37845;53.196;5.638;2022-10-16T12:06:06;16.20;99.90
51783;DHT22;37845;53.196;5.638;2022-10-16T12:08:37;16.20;99.90
51783;DHT22;37845;53.196;5.638;2022-10-16T12:13:47;16.30;99.90
51783;DHT22;37845;53.196;5.638;2022-10-16T12:18:40;16.30;99.90
51783;DHT22;37845;53.196;5.638;2022-10-16T12:21:06;16.30;99.90
51783;DHT22;37845;53.196;5.638;2022-10-16T12:23:33;16.30;99.90
51783;DHT22;37845;53.196;5.638;2022-10-16T12:26:01;16.20;99.90
51783;DHT22;37845;53.196;5.638;2022-10-16T12:28:31;16.20;99.90
51783;DHT22;37845;53.196;5.638;2022-10-16T12:30:59;16.20;99.90
51783;DHT22;37845;53.196;5.638;2022-10-16T12:33:27;16.20;99.90
51783;DHT22;37845;53.196;5.638;2022-10-16T12:35:54;16.20;99.90
51783;DHT22;37845;53.196;5.638;2022-10-16T12:38:21;16.20;99.90
51783;DHT22;37845;53.196;5.638;2022-10-16T12:40:59;16.20;99.90
51783;DHT22;37845;53.196;5.638;2022-10-16T12:43:36;16.20;99.90
51783;DHT22;37845;53.196;5.638;2022-10-16T12:48:35;16.10;99.90
51783;DHT22;37845;53.196;5.638;2022-10-16T12:53:45;16.10;99.90
51783;DHT22;37845;53.196;5.638;2022-10-16T12:56:24;16.10;99.90
51783;DHT22;37845;53.196;5.638;2022-10-16T13:01:42;16.10;99.90
51783;DHT22;37845;53.196;5.638;2022-10-16T13:09:49;16.00;99.90
51783;DHT22;37845;53.196;5.638;2022-10-16T13:12:13;16.00;99.90
51783;DHT22;37845;53.196;5.638;2022-10-16T13:17:11;15.90;99.90
51783;DHT22;37845;53.196;5.638;2022-10-16T13:22:33;15.90;99.90
51783;DHT22;37845;53.196;5.638;2022-10-16T13:27:56;15.80;99.90
51783;DHT22;37845;53.196;5.638;2022-10-16T13:31:02;15.80;99.90
51783;DHT22;37845;53.196;5.638;2022-10-16T13:35:54;15.70;99.90
51783;DHT22;37845;53.196;5.638;2022-10-16T13:38:21;15.70;99.90
51783;DHT22;37845;53.196;5.638;2022-10-16T13:40:54;15.60;99.90
51783;DHT22;37845;53.196;5.638;2022-10-16T13:43:22;15.60;99.90
51783;DHT22;37845;53.196;5.638;2022-10-16T13:48:20;15.60;99.90
51783;DHT22;37845;53.196;5.638;2022-10-16T13:50:45;15.60;99.90
51783;DHT22;37845;53.196;5.638;2022-10-16T13:53:14;15.60;99.90
51783;DHT22;37845;53.196;5.638;2022-10-16T13:55:40;15.60;99.90
51783;DHT22;37845;53.196;5.638;2022-10-16T13:58:12;15.60;99.90
51783;DHT22;37845;53.196;5.638;2022-10-16T14:00:38;15.60;99.90
51783;DHT22;37845;53.196;5.638;2022-10-16T14:03:05;15.60;99.90
51783;DHT22;37845;53.196;5.638;2022-10-16T14:05:32;15.60;99.90
51783;DHT22;37845;53.196;5.638;2022-10-16T14:07:58;15.60;99.90
51783;DHT22;37845;53.196;5.638;2022-10-16T14:12:56;15.70;99.90
51783;DHT22;37845;53.196;5.638;2022-10-16T14:15:22;15.70;99.90
51783;DHT22;37845;53.196;5.638;2022-10-16T14:17:50;15.70;99.90
51783;DHT22;37845;53.196;5.638;2022-10-16T14:20:16;15.70;99.90
51783;DHT22;37845;53.196;5.638;2022-10-16T14:22:42;15.70;99.90
51783;DHT22;37845;53.196;5.638;2022-10-16T14:28:03;15.60;99.90
51783;DHT22;37845;53.196;5.638;2022-10-16T14:30:29;15.60;99.90
51783;DHT22;37845;53.196;5.638;2022-10-16T14:33:00;15.60;99.90
51783;DHT22;37845;53.196;5.638;2022-10-16T14:35:32;15.60;99.90
51783;DHT22;37845;53.196;5.638;2022-10-16T14:37:59;15.60;99.90
51783;DHT22;37845;53.196;5.638;2022-10-16T14:40:27;15.60;99.90
51783;DHT22;37845;53.196;5.638;2022-10-16T14:42:53;15.60;99.90
51783;DHT22;37845;53.196;5.638;2022-10-16T14:45:28;15.50;99.90
51783;DHT22;37845;53.196;5.638;2022-10-16T14:47:55;15.50;99.90
51783;DHT22;37845;53.196;5.638;2022-10-16T14:50:22;15.40;99.90
51783;DHT22;37845;53.196;5.638;2022-10-16T14:52:48;15.40;99.90
51783;DHT22;37845;53.196;5.638;2022-10-16T14:55:13;15.30;99.90
51783;DHT22;37845;53.196;5.638;2022-10-16T14:57:39;15.30;99.90
51783;DHT22;37845;53.196;5.638;2022-10-16T15:00:21;15.30;99.90
51783;DHT22;37845;53.196;5.638;2022-10-16T15:02:47;15.30;99.90
51783;DHT22;37845;53.196;5.638;2022-10-16T15:05:15;15.20;99.90
51783;DHT22;37845;53.196;5.638;2022-10-16T15:07:41;15.20;99.90
51783;DHT22;37845;53.196;5.638;2022-10-16T15:10:07;15.20;99.90
51783;DHT22;37845;53.196;5.638;2022-10-16T15:12:33;15.20;99.90
51783;DHT22;37845;53.196;5.638;2022-10-16T15:14:58;15.20;99.90
51783;DHT22;37845;53.196;5.638;2022-10-16T15:17:24;15.10;99.90
51783;DHT22;37845;53.196;5.638;2022-10-16T15:19:49;15.20;99.90
51783;DHT22;37845;53.196;5.638;2022-10-16T15:22:16;15.10;99.90
51783;DHT22;37845;53.196;5.638;2022-10-16T15:24:42;15.10;99.90
51783;DHT22;37845;53.196;5.638;2022-10-16T15:27:08;15.10;99.90
51783;DHT22;37845;53.196;5.638;2022-10-16T15:29:34;15.10;99.90
51783;DHT22;37845;53.196;5.638;2022-10-16T15:31:59;15.10;99.90
51783;DHT22;37845;53.196;5.638;2022-10-16T15:34:25;15.00;99.90
51783;DHT22;37845;53.196;5.638;2022-10-16T15:36:50;15.00;99.90
51783;DHT22;37845;53.196;5.638;2022-10-16T15:39:17;15.00;99.90
51783;DHT22;37845;53.196;5.638;2022-10-16T15:41:44;15.00;99.90
51783;DHT22;37845;53.196;5.638;2022-10-16T15:44:09;15.00;99.90
51783;DHT22;37845;53.196;5.638;2022-10-16T15:46:35;14.90;99.90
51783;DHT22;37845;53.196;5.638;2022-10-16T15:49:02;14.90;99.90
51783;DHT22;37845;53.196;5.638;2022-10-16T15:51:28;14.90;99.90
51783;DHT22;37845;53.196;5.638;2022-10-16T15:53:58;14.90;99.90
51783;DHT22;37845;53.196;5.638;2022-10-16T15:56:24;14.80;99.90
51783;DHT22;37845;53.196;5.638;2022-10-16T15:58:54;14.80;99.90
51783;DHT22;37845;53.196;5.638;2022-10-16T16:01:20;14.80;99.90
51783;DHT22;37845;53.196;5.638;2022-10-16T16:03:45;14.80;99.90
51783;DHT22;37845;53.196;5.638;2022-10-16T16:06:12;14.70;99.90
51783;DHT22;37845;53.196;5.638;2022-10-16T16:08:38;14.70;99.90
51783;DHT22;37845;53.196;5.638;2022-10-16T16:11:08;14.60;99.90
51783;DHT22;37845;53.196;5.638;2022-10-16T16:13:34;14.60;99.90
51783;DHT22;37845;53.196;5.638;2022-10-16T16:16:04;14.50;99.90
51783;DHT22;37845;53.196;5.638;2022-10-16T16:18:30;14.50;99.90
51783;DHT22;37845;53.196;5.638;2022-10-16T16:20:55;14.50;99.90
51783;DHT22;37845;53.196;5.638;2022-10-16T16:23:22;14.40;99.90
51783;DHT22;37845;53.196;5.638;2022-10-16T16:28:28;14.30;99.90
51783;DHT22;37845;53.196;5.638;2022-10-16T16:30:55;14.20;99.90
51783;DHT22;37845;53.196;5.638;2022-10-16T16:33:21;14.20;99.90
51783;DHT22;37845;53.196;5.638;2022-10-16T16:35:46;14.10;99.90
51783;DHT22;37845;53.196;5.638;2022-10-16T16:38:12;14.10;99.90
51783;DHT22;37845;53.196;5.638;2022-10-16T16:40:37;14.10;99.90
51783;DHT22;37845;53.196;5.638;2022-10-16T16:43:03;14.00;99.90
51783;DHT22;37845;53.196;5.638;2022-10-16T16:45:29;14.00;99.90
51783;DHT22;37845;53.196;5.638;2022-10-16T16:47:54;14.00;99.90
51783;DHT22;37845;53.196;5.638;2022-10-16T16:50:20;14.00;99.90
51783;DHT22;37845;53.196;5.638;2022-10-16T16:52:46;13.90;99.90
51783;DHT22;37845;53.196;5.638;2022-10-16T16:55:11;13.80;99.90
51783;DHT22;37845;53.196;5.638;2022-10-16T16:57:37;13.80;99.90
51783;DHT22;37845;53.196;5.638;2022-10-16T17:00:03;13.80;99.90
51783;DHT22;37845;53.196;5.638;2022-10-16T17:02:28;13.80;99.90
51783;DHT22;37845;53.196;5.638;2022-10-16T17:04:54;13.80;99.90
51783;DHT22;37845;53.196;5.638;2022-10-16T17:07:22;13.80;99.90
51783;DHT22;37845;53.196;5.638;2022-10-16T17:09:47;13.80;99.90
51783;DHT22;37845;53.196;5.638;2022-10-16T17:12:13;13.40;99.90
51783;DHT22;37845;53.196;5.638;2022-10-16T17:14:38;13.80;99.90
51783;DHT22;37845;53.196;5.638;2022-10-16T17:17:04;13.80;99.90
51783;DHT22;37845;53.196;5.638;2022-10-16T17:19:32;13.80;99.90
51783;DHT22;37845;53.196;5.638;2022-10-16T17:21:57;13.70;99.90
51783;DHT22;37845;53.196;5.638;2022-10-16T17:24:23;13.70;99.90
51783;DHT22;37845;53.196;5.638;2022-10-16T17:26:49;13.70;99.90
51783;DHT22;37845;53.196;5.638;2022-10-16T17:29:15;13.70;99.90
51783;DHT22;37845;53.196;5.638;2022-10-16T17:31:42;13.70;99.90